createdAt,value
2022-12-15T00:00:20.488Z,14.93
2022-12-15T00:03:05.949Z,15.07
2022-12-15T00:05:52.933Z,15.10
2022-12-15T00:08:38.457Z,15.33
2022-12-15T00:11:24.073Z,14.40
2022-12-15T00:14:09.595Z,14.43
2022-12-15T00:16:55.425Z,14.80
2022-12-15T00:19:40.861Z,15.20
2022-12-15T00:22:26.569Z,15.03
2022-12-15T00:25:12.750Z,15.30
2022-12-15T00:27:58.061Z,15.87
2022-12-15T00:30:43.262Z,15.10
2022-12-15T00:33:31.051Z,15.37
2022-12-15T00:36:19.741Z,15.90
2022-12-15T00:38:47.504Z,17.13
2022-12-15T00:41:17.693Z,16.57
2022-12-15T00:43:46.309Z,17.43
2022-12-15T00:46:32.658Z,14.87
2022-12-15T00:49:00.139Z,16.77
2022-12-15T00:51:45.801Z,15.00
2022-12-15T00:54:31.162Z,14.87
2022-12-15T00:57:16.249Z,13.43
2022-12-15T01:00:01.478Z,14.57
2022-12-15T01:02:47.210Z,15.37
2022-12-15T01:05:33.180Z,15.97
2022-12-15T01:08:18.997Z,14.60
2022-12-15T01:11:04.325Z,14.40
2022-12-15T01:13:50.109Z,15.40
2022-12-15T01:16:36.350Z,14.20
2022-12-15T01:19:22.195Z,16.10
2022-12-15T01:21:49.750Z,14.80
2022-12-15T01:24:16.870Z,16.10
2022-12-15T01:26:43.884Z,15.50
2022-12-15T01:29:10.827Z,15.47
2022-12-15T01:31:37.744Z,15.70
2022-12-15T01:34:04.983Z,15.70
2022-12-15T01:36:31.902Z,15.87
2022-12-15T01:38:58.857Z,15.30
2022-12-15T01:41:25.810Z,14.20
2022-12-15T01:43:52.814Z,16.10
2022-12-15T01:46:23.631Z,14.30
2022-12-15T01:49:30.359Z,15.30
2022-12-15T01:52:00.688Z,15.40
2022-12-15T01:54:57.829Z,15.50
2022-12-15T01:57:29.627Z,14.27
2022-12-15T02:00:02.043Z,15.30
2022-12-15T02:02:34.413Z,14.50
2022-12-15T02:05:06.230Z,15.07
2022-12-15T02:07:33.198Z,14.73
2022-12-15T02:10:04.240Z,14.37
2022-12-15T02:13:03.298Z,15.47
2022-12-15T02:15:50.889Z,15.90
2022-12-15T02:18:37.338Z,15.80
2022-12-15T02:21:10.497Z,15.13
2022-12-15T02:24:31.854Z,15.57
2022-12-15T02:27:59.157Z,15.07
2022-12-15T02:31:14.032Z,14.17
2022-12-15T02:34:00.726Z,15.30
2022-12-15T02:36:39.286Z,13.50
2022-12-15T02:39:06.477Z,14.70
2022-12-15T02:41:35.337Z,15.37
2022-12-15T02:44:42.203Z,16.07
2022-12-15T02:47:39.810Z,14.70
2022-12-15T02:50:18.562Z,14.97
2022-12-15T02:53:07.770Z,15.30
2022-12-15T02:55:59.110Z,14.90
2022-12-15T02:58:52.967Z,13.90
2022-12-15T03:01:42.945Z,15.27
2022-12-15T03:04:12.321Z,15.03
2022-12-15T03:06:39.720Z,15.00
2022-12-15T03:09:06.700Z,14.50
2022-12-15T03:11:34.137Z,15.20
2022-12-15T03:14:01.031Z,14.47
2022-12-15T03:16:27.969Z,13.90
2022-12-15T03:18:54.873Z,15.30
2022-12-15T03:21:21.785Z,14.13
2022-12-15T03:23:48.771Z,15.10
2022-12-15T03:26:16.404Z,14.80
2022-12-15T03:28:43.388Z,14.60
2022-12-15T03:31:10.294Z,16.50
2022-12-15T03:33:37.192Z,15.70
2022-12-15T03:36:04.750Z,13.83
2022-12-15T03:38:32.674Z,15.80
2022-12-15T03:40:59.621Z,14.70
2022-12-15T03:43:26.545Z,14.80
2022-12-15T03:45:53.566Z,14.80
2022-12-15T03:48:20.474Z,15.77
2022-12-15T03:50:50.026Z,14.00
2022-12-15T03:53:17.039Z,15.77
2022-12-15T03:55:44.005Z,15.20
2022-12-15T03:58:10.971Z,15.00
2022-12-15T04:00:38.019Z,15.70
2022-12-15T04:03:05.294Z,14.57
2022-12-15T04:05:34.995Z,15.90
2022-12-15T04:08:02.476Z,14.77
2022-12-15T04:10:34.755Z,14.30
2022-12-15T04:13:12.603Z,15.53
2022-12-15T04:15:40.713Z,14.50
2022-12-15T04:18:10.536Z,14.53
2022-12-15T04:20:40.092Z,15.07
2022-12-15T04:23:10.664Z,15.53
2022-12-15T04:25:56.928Z,15.47
2022-12-15T04:28:43.262Z,15.50
2022-12-15T04:31:38.514Z,14.60
2022-12-15T04:34:28.594Z,15.77
2022-12-15T04:37:13.922Z,15.27
2022-12-15T04:40:04.334Z,16.07
2022-12-15T04:42:52.313Z,14.63
2022-12-15T04:45:41.591Z,14.50
2022-12-15T04:48:27.595Z,16.07
2022-12-15T04:51:13.673Z,14.70
2022-12-15T04:53:59.609Z,16.57
2022-12-15T04:56:45.387Z,15.43
2022-12-15T04:59:30.725Z,15.50
2022-12-15T05:02:16.241Z,16.50
2022-12-15T05:05:01.486Z,16.63
2022-12-15T05:07:46.808Z,16.27
2022-12-15T05:10:32.074Z,15.03
2022-12-15T05:13:27.808Z,14.37
2022-12-15T05:16:13.336Z,14.70
2022-12-15T05:18:58.641Z,16.07
2022-12-15T05:21:43.904Z,15.63
2022-12-15T05:24:29.251Z,15.03
2022-12-15T05:27:14.408Z,16.07
2022-12-15T05:29:59.686Z,15.80
2022-12-15T05:32:26.635Z,15.30
2022-12-15T05:34:53.606Z,16.40
2022-12-15T05:37:21.733Z,16.50
2022-12-15T05:39:48.657Z,15.77
2022-12-15T05:42:15.654Z,15.47
2022-12-15T05:44:43.230Z,15.83
2022-12-15T05:47:11.711Z,16.73
2022-12-15T05:49:38.592Z,16.60
2022-12-15T05:52:06.633Z,15.57
2022-12-15T05:54:33.591Z,16.50
2022-12-15T05:57:00.543Z,15.67
2022-12-15T05:59:27.510Z,15.90
2022-12-15T06:01:54.530Z,15.80
2022-12-15T06:04:21.558Z,15.07
2022-12-15T06:06:48.455Z,15.13
2022-12-15T06:09:15.443Z,15.80
2022-12-15T06:11:43.671Z,16.50
2022-12-15T06:14:10.596Z,16.97
2022-12-15T06:16:44.243Z,15.67
2022-12-15T06:19:19.260Z,16.17
2022-12-15T06:21:46.198Z,16.50
2022-12-15T06:24:15.695Z,16.50
2022-12-15T06:26:42.573Z,14.47
2022-12-15T06:29:12.429Z,14.50
2022-12-15T06:31:41.292Z,16.60
2022-12-15T06:34:12.777Z,16.00
2022-12-15T06:36:40.055Z,16.60
2022-12-15T06:39:10.689Z,15.30
2022-12-15T06:41:38.739Z,14.73
2022-12-15T06:44:06.030Z,16.87
2022-12-15T06:46:35.065Z,15.93
2022-12-15T06:49:02.426Z,15.77
2022-12-15T06:51:29.912Z,16.00
2022-12-15T06:53:56.930Z,16.57
2022-12-15T06:56:38.779Z,15.40
2022-12-15T06:59:07.884Z,16.63
2022-12-15T07:01:35.652Z,16.60
2022-12-15T07:04:05.414Z,15.97
2022-12-15T07:06:36.906Z,15.70
2022-12-15T07:09:07.418Z,16.57
2022-12-15T07:11:35.458Z,17.07
2022-12-15T07:14:03.111Z,16.73
2022-12-15T07:16:31.128Z,16.53
2022-12-15T07:18:58.117Z,15.83
2022-12-15T07:21:25.039Z,14.93
2022-12-15T07:23:55.375Z,15.60
2022-12-15T07:26:24.435Z,16.30
2022-12-15T07:28:52.958Z,16.73
2022-12-15T07:31:19.970Z,16.00
2022-12-15T07:33:48.426Z,15.33
2022-12-15T07:36:15.894Z,16.90
2022-12-15T07:38:42.861Z,15.83
2022-12-15T07:41:10.454Z,16.53
2022-12-15T07:43:37.984Z,15.97
2022-12-15T07:46:06.259Z,15.27
2022-12-15T07:48:33.877Z,16.47
2022-12-15T07:51:11.080Z,15.63
2022-12-15T07:53:39.912Z,14.73
2022-12-15T07:56:09.278Z,15.80
2022-12-15T07:58:38.517Z,16.20
2022-12-15T08:01:10.165Z,16.67
2022-12-15T08:03:38.485Z,16.23
2022-12-15T08:06:11.367Z,15.70
2022-12-15T08:08:39.580Z,16.77
2022-12-15T08:11:08.262Z,15.80
2022-12-15T08:16:23.817Z,15.50
2022-12-15T08:18:50.817Z,15.37
2022-12-15T08:21:18.125Z,14.87
2022-12-15T08:23:45.233Z,16.90
2022-12-15T08:26:15.716Z,15.20
2022-12-15T08:28:43.767Z,14.83
2022-12-15T08:31:17.816Z,16.13
2022-12-15T08:33:45.719Z,15.50
2022-12-15T08:36:17.607Z,14.27
2022-12-15T08:38:46.100Z,15.90
2022-12-15T08:41:23.297Z,16.50
2022-12-15T08:43:51.795Z,15.80
2022-12-15T08:46:22.612Z,14.77
2022-12-15T08:48:50.638Z,16.80
2022-12-15T08:51:18.098Z,16.40
2022-12-15T08:53:46.021Z,15.80
2022-12-15T08:56:17.026Z,17.10
2022-12-15T08:58:45.837Z,17.03
2022-12-15T09:01:23.214Z,18.03
2022-12-15T09:03:53.843Z,17.80
2022-12-15T09:06:34.331Z,19.80
2022-12-15T09:09:05.100Z,17.50
2022-12-15T09:11:32.251Z,17.67
2022-12-15T09:13:59.807Z,17.47
2022-12-15T09:16:27.966Z,16.80
2022-12-15T09:18:58.366Z,18.40
2022-12-15T09:21:28.927Z,16.77
2022-12-15T09:24:00.601Z,17.50
2022-12-15T09:26:34.146Z,17.43
2022-12-15T09:29:02.049Z,17.00
2022-12-15T09:31:37.031Z,16.00
2022-12-15T09:34:03.996Z,16.33
2022-12-15T09:36:35.251Z,17.20
2022-12-15T09:39:03.038Z,15.90
2022-12-15T09:41:33.430Z,15.73
2022-12-15T09:44:18.297Z,15.10
2022-12-15T09:47:15.833Z,15.37
2022-12-15T09:49:56.315Z,16.13
2022-12-15T09:52:35.790Z,15.60
2022-12-15T09:55:17.080Z,16.93
2022-12-15T09:57:54.277Z,14.80
2022-12-15T10:00:27.702Z,16.47
2022-12-15T10:03:24.904Z,15.30
2022-12-15T10:06:16.715Z,15.70
2022-12-15T10:08:50.809Z,16.63
2022-12-15T10:11:27.034Z,16.77
2022-12-15T10:14:31.093Z,15.50
2022-12-15T10:17:11.697Z,16.23
2022-12-15T10:20:15.440Z,17.53
2022-12-15T10:22:42.340Z,17.70
2022-12-15T10:25:29.716Z,16.13
2022-12-15T10:28:15.905Z,17.63
2022-12-15T10:31:25.648Z,18.67
2022-12-15T10:34:09.191Z,16.63
2022-12-15T10:36:36.676Z,17.07
2022-12-15T10:39:03.839Z,17.83
2022-12-15T10:41:33.864Z,17.90
2022-12-15T10:44:02.639Z,18.00
2022-12-15T10:46:31.842Z,17.10
2022-12-15T10:49:08.080Z,16.77
2022-12-15T10:51:53.191Z,17.30
2022-12-15T10:54:20.901Z,17.73
2022-12-15T10:56:57.501Z,16.70
2022-12-15T10:59:38.011Z,16.50
2022-12-15T11:02:34.262Z,17.20
2022-12-15T11:05:18.183Z,17.20
2022-12-15T11:07:50.821Z,17.20
2022-12-15T11:10:51.423Z,18.23
2022-12-15T11:13:22.224Z,18.20
2022-12-15T11:15:51.428Z,18.10
2022-12-15T11:18:37.200Z,17.87
2022-12-15T11:21:15.561Z,16.80
2022-12-15T11:24:14.018Z,18.40
2022-12-15T11:27:17.118Z,17.50
2022-12-15T11:29:54.399Z,18.37
2022-12-15T11:32:26.693Z,18.63
2022-12-15T11:34:54.070Z,17.40
2022-12-15T11:37:57.156Z,17.43
2022-12-15T11:40:40.798Z,16.93
2022-12-15T11:43:35.608Z,17.40
2022-12-15T11:46:27.973Z,18.77
2022-12-15T11:49:23.342Z,18.17
2022-12-15T11:52:00.794Z,17.80
2022-12-15T11:54:55.617Z,17.37
2022-12-15T11:57:54.682Z,17.80
2022-12-15T12:00:23.399Z,17.70
2022-12-15T12:03:15.087Z,16.03
2022-12-15T12:06:40.009Z,16.90
2022-12-15T12:09:54.259Z,17.53
2022-12-15T12:12:38.234Z,15.90
2022-12-15T12:15:14.394Z,18.67
2022-12-15T12:17:52.114Z,16.23
2022-12-15T12:20:25.292Z,18.53
2022-12-15T12:23:11.222Z,17.07
2022-12-15T12:26:04.566Z,18.83
2022-12-15T12:28:50.862Z,18.73
2022-12-15T12:32:04.865Z,18.03
2022-12-15T12:34:40.321Z,18.60
2022-12-15T12:37:32.318Z,17.60
2022-12-15T12:40:07.738Z,17.83
2022-12-15T12:42:54.948Z,20.10
2022-12-15T12:45:30.041Z,18.73
2022-12-15T12:48:03.712Z,19.70
2022-12-15T12:50:32.518Z,19.70
2022-12-15T12:53:02.563Z,19.80
2022-12-15T12:55:42.751Z,19.93
2022-12-15T12:58:39.541Z,20.10
2022-12-15T13:01:30.982Z,18.60
2022-12-15T13:04:38.630Z,18.87
2022-12-15T13:07:32.048Z,18.60
2022-12-15T13:10:07.817Z,19.87
2022-12-15T13:12:52.572Z,20.60
2022-12-15T13:15:29.267Z,18.27
2022-12-15T13:18:14.151Z,20.67
2022-12-15T13:20:43.097Z,21.73
2022-12-15T13:23:22.177Z,18.27
2022-12-15T13:25:57.863Z,21.40
2022-12-15T13:28:42.693Z,17.83
2022-12-15T13:31:19.988Z,19.33
2022-12-15T13:33:52.846Z,20.67
2022-12-15T13:36:54.459Z,20.73
2022-12-15T13:39:28.093Z,19.10
2022-12-15T13:42:31.400Z,21.63
2022-12-15T13:44:48.889Z,20.93
2022-12-15T13:47:26.322Z,21.90
2022-12-15T13:50:10.902Z,19.87
2022-12-15T13:55:56.622Z,19.67
2022-12-15T13:58:25.052Z,18.97
2022-12-15T14:00:56.601Z,17.00
2022-12-15T14:03:24.214Z,20.53
2022-12-15T14:05:55.657Z,21.40
2022-12-15T14:08:25.696Z,20.67
2022-12-15T14:11:16.632Z,20.63
2022-12-15T14:16:36.151Z,23.17
2022-12-15T14:19:23.751Z,20.30
2022-12-15T14:21:59.492Z,21.63
2022-12-15T14:24:41.176Z,20.83
2022-12-15T14:27:08.496Z,21.20
2022-12-15T14:29:35.569Z,21.27
2022-12-15T14:32:02.971Z,21.70
2022-12-15T14:34:39.927Z,22.57
2022-12-15T14:37:16.578Z,23.43
2022-12-15T14:39:50.164Z,20.63
2022-12-15T14:42:26.578Z,21.50
2022-12-15T14:44:57.734Z,18.70
2022-12-15T14:47:30.125Z,21.27
2022-12-15T14:49:58.465Z,22.07
2022-12-15T14:52:40.041Z,21.10
2022-12-15T14:55:34.398Z,21.07
2022-12-15T14:58:03.450Z,21.10
2022-12-15T15:00:35.507Z,20.70
2022-12-15T15:03:05.834Z,21.17
2022-12-15T15:03:39.824Z,23.43
2022-12-15T15:06:18.321Z,19.40
2022-12-15T15:08:51.229Z,21.80
2022-12-15T15:11:35.969Z,23.60
2022-12-15T15:14:32.946Z,20.37
2022-12-15T15:17:14.652Z,20.57
2022-12-15T15:19:50.968Z,21.40
2022-12-15T15:22:46.167Z,22.47
2022-12-15T15:25:39.254Z,22.10
2022-12-15T15:28:19.245Z,22.80
2022-12-15T15:30:56.516Z,23.47
2022-12-15T15:33:25.068Z,24.70
2022-12-15T15:35:56.276Z,21.33
2022-12-15T15:38:41.475Z,19.57
2022-12-15T15:41:14.541Z,20.30
2022-12-15T15:43:42.594Z,20.83
2022-12-15T15:46:19.031Z,22.30
2022-12-15T15:48:51.359Z,22.37
2022-12-15T15:51:19.213Z,21.33
2022-12-15T15:53:46.625Z,21.57
2022-12-15T15:56:16.445Z,20.97
2022-12-15T15:58:44.201Z,20.83
2022-12-15T16:01:13.515Z,18.80
2022-12-15T16:03:41.943Z,19.40
2022-12-15T16:06:21.425Z,20.40
2022-12-15T16:08:53.852Z,20.13
2022-12-15T16:11:26.805Z,20.77
2022-12-15T16:13:53.738Z,22.50
2022-12-15T16:16:24.497Z,21.33
2022-12-15T16:18:51.477Z,20.50
2022-12-15T16:21:27.752Z,19.77
2022-12-15T16:23:57.189Z,20.10
2022-12-15T16:26:34.032Z,21.47
2022-12-15T16:29:00.956Z,21.53
2022-12-15T16:31:41.671Z,19.30
2022-12-15T16:34:09.061Z,20.13
2022-12-15T16:36:36.213Z,19.87
2022-12-15T16:39:04.262Z,21.33
2022-12-15T16:41:31.413Z,20.53
2022-12-15T16:43:58.638Z,21.97
2022-12-15T16:46:26.049Z,21.13
2022-12-15T16:48:53.616Z,20.30
2022-12-15T16:51:39.285Z,21.20
2022-12-15T16:54:06.892Z,19.20
2022-12-15T16:56:33.816Z,20.63
2022-12-15T16:59:31.342Z,16.77
2022-12-15T17:01:48.299Z,19.10
2022-12-15T17:04:16.676Z,18.03
2022-12-15T17:06:43.641Z,20.10
2022-12-15T17:09:22.309Z,20.07
2022-12-15T17:11:50.228Z,18.63
2022-12-15T17:14:17.180Z,18.87
2022-12-15T17:16:44.179Z,18.00
2022-12-15T17:19:13.841Z,17.63
2022-12-15T17:21:50.014Z,18.57
2022-12-15T17:24:20.131Z,19.40
2022-12-15T17:26:47.612Z,19.97
2022-12-15T17:29:23.748Z,17.73
2022-12-15T17:31:51.283Z,18.80
2022-12-15T17:34:33.773Z,18.80
2022-12-15T17:37:04.633Z,18.27
2022-12-15T17:39:34.688Z,17.43
2022-12-15T17:42:03.352Z,16.77
2022-12-15T17:44:36.786Z,19.07
2022-12-15T17:47:08.245Z,18.90
2022-12-15T17:49:37.594Z,15.77
2022-12-15T17:52:28.429Z,15.17
2022-12-15T17:54:56.496Z,17.03
2022-12-15T17:57:23.403Z,16.87
2022-12-15T17:59:50.306Z,19.20
2022-12-15T18:02:17.422Z,17.97
2022-12-15T18:04:44.969Z,18.73
2022-12-15T18:07:23.828Z,18.30
2022-12-15T18:09:52.164Z,19.77
2022-12-15T18:12:26.151Z,18.90
2022-12-15T18:14:54.180Z,17.70
2022-12-15T18:17:21.235Z,16.00
2022-12-15T18:19:48.607Z,16.80
2022-12-15T18:22:23.137Z,18.03
2022-12-15T18:24:52.481Z,18.23
2022-12-15T18:27:30.032Z,17.20
2022-12-15T18:29:57.053Z,16.80
2022-12-15T18:32:26.914Z,14.90
2022-12-15T18:34:55.173Z,17.67
2022-12-15T18:37:24.940Z,16.10
2022-12-15T18:39:52.661Z,17.47
2022-12-15T18:42:21.448Z,17.53
2022-12-15T18:44:52.008Z,17.30
2022-12-15T18:47:23.826Z,17.00
2022-12-15T18:49:50.935Z,15.33
2022-12-15T18:52:23.787Z,17.27
2022-12-15T18:54:53.894Z,14.60
2022-12-15T18:57:38.187Z,17.40
2022-12-15T19:00:27.544Z,14.70
2022-12-15T19:02:57.703Z,15.97
2022-12-15T19:05:28.688Z,17.00
2022-12-15T19:08:00.678Z,15.53
2022-12-15T19:10:33.208Z,18.27
2022-12-15T19:13:00.854Z,16.13
2022-12-15T19:15:27.942Z,16.70
2022-12-15T19:18:13.753Z,14.63
2022-12-15T19:20:59.632Z,15.13
2022-12-15T19:23:26.543Z,14.87
2022-12-15T19:25:53.836Z,15.27
2022-12-15T19:28:23.978Z,16.97
2022-12-15T19:30:52.201Z,16.87
2022-12-15T19:33:19.935Z,16.10
2022-12-15T19:35:50.942Z,15.90
2022-12-15T19:38:29.153Z,16.83
2022-12-15T19:40:58.199Z,15.93
2022-12-15T19:43:26.195Z,15.80
2022-12-15T19:45:53.739Z,16.50
2022-12-15T19:48:23.594Z,16.80
2022-12-15T19:50:52.397Z,16.50
2022-12-15T19:53:28.147Z,18.00
2022-12-15T19:55:59.091Z,16.30
2022-12-15T19:58:32.138Z,15.50
2022-12-15T20:01:10.189Z,15.33
2022-12-15T20:03:37.833Z,16.70
2022-12-15T20:06:19.194Z,15.77
2022-12-15T20:08:48.749Z,14.80
2022-12-15T20:11:22.965Z,17.50
2022-12-15T20:13:50.929Z,15.70
2022-12-15T20:16:19.169Z,15.60
2022-12-15T20:18:50.726Z,14.07
2022-12-15T20:21:22.291Z,15.50
2022-12-15T20:24:02.240Z,15.20
2022-12-15T20:26:30.897Z,14.17
2022-12-15T20:28:58.549Z,14.43
2022-12-15T20:31:26.382Z,15.07
2022-12-15T20:33:53.786Z,13.60
2022-12-15T20:36:27.705Z,16.37
2022-12-15T20:38:55.379Z,16.27
2022-12-15T20:41:26.114Z,14.17
2022-12-15T20:43:54.647Z,15.00
2022-12-15T20:46:24.162Z,17.47
2022-12-15T20:48:54.832Z,15.07
2022-12-15T20:51:30.298Z,14.60
2022-12-15T20:54:00.657Z,16.30
2022-12-15T20:56:28.100Z,15.20
2022-12-15T20:58:58.085Z,14.27
2022-12-15T21:01:31.803Z,14.50
2022-12-15T21:04:02.241Z,15.40
2022-12-15T21:06:30.157Z,13.47
2022-12-15T21:08:57.343Z,14.17
2022-12-15T21:11:31.469Z,12.73
2022-12-15T21:14:03.965Z,13.60
2022-12-15T21:16:33.034Z,12.50
2022-12-15T21:19:22.425Z,14.03
2022-12-15T21:21:55.293Z,13.53
2022-12-15T21:24:28.229Z,12.87
2022-12-15T21:26:55.772Z,12.60
2022-12-15T21:29:26.256Z,14.30
2022-12-15T21:31:53.197Z,12.93
2022-12-15T21:34:20.217Z,13.93
2022-12-15T21:36:51.858Z,14.73
2022-12-15T21:39:36.405Z,13.30
2022-12-15T21:42:12.071Z,12.03
2022-12-15T21:44:38.944Z,12.87
2022-12-15T21:47:25.600Z,12.70
2022-12-15T21:49:53.012Z,13.73
2022-12-15T21:52:24.282Z,12.07
2022-12-15T21:54:51.225Z,12.53
2022-12-15T21:57:18.084Z,12.90
2022-12-15T21:59:45.031Z,13.27
2022-12-15T22:02:26.826Z,11.90
2022-12-15T22:04:55.043Z,11.90
2022-12-15T22:07:22.461Z,11.80
2022-12-15T22:09:49.453Z,13.23
2022-12-15T22:12:24.104Z,10.17
2022-12-15T22:14:52.026Z,12.03
2022-12-15T22:17:22.108Z,11.00
2022-12-15T22:19:49.052Z,12.37
2022-12-15T22:22:16.563Z,12.47
2022-12-15T22:24:43.773Z,10.93
2022-12-15T22:27:22.129Z,11.10
2022-12-15T22:29:50.239Z,11.17
2022-12-15T22:32:17.735Z,11.13
2022-12-15T22:34:44.814Z,11.10
2022-12-15T22:37:11.740Z,11.07
2022-12-15T22:39:38.717Z,12.00
2022-12-15T22:42:06.221Z,11.50
2022-12-15T22:44:37.215Z,11.33
2022-12-15T22:47:06.146Z,11.87
2022-12-15T22:49:38.258Z,9.93
2022-12-15T22:52:20.606Z,11.30
2022-12-15T22:54:48.611Z,9.87
2022-12-15T22:57:27.452Z,10.87
2022-12-15T23:00:02.990Z,10.40
2022-12-15T23:02:34.158Z,9.00
2022-12-15T23:05:01.911Z,9.47
2022-12-15T23:07:28.992Z,9.83
2022-12-15T23:10:14.256Z,10.73
2022-12-15T23:12:41.175Z,9.67
2022-12-15T23:15:27.847Z,9.97
2022-12-15T23:17:55.089Z,8.70
2022-12-15T23:20:22.097Z,10.00
2022-12-15T23:22:49.017Z,9.43
2022-12-15T23:25:16.170Z,8.97
2022-12-15T23:27:43.020Z,9.17
2022-12-15T23:30:12.700Z,10.50
2022-12-15T23:32:39.566Z,9.80
2022-12-15T23:35:07.333Z,9.03
2022-12-15T23:37:35.099Z,10.50
2022-12-15T23:40:02.476Z,9.80
2022-12-15T23:42:29.382Z,9.00
2022-12-15T23:44:56.327Z,8.37
2022-12-15T23:47:23.217Z,8.40
2022-12-15T23:49:50.217Z,8.77
2022-12-15T23:52:20.087Z,8.67
2022-12-15T23:54:47.057Z,8.70
2022-12-15T23:57:14.002Z,10.20
2022-12-15T23:59:40.951Z,9.43
